createdAt,value
2023-03-20T00:00:27.178Z,181.05
2023-03-20T00:02:53.732Z,178.48
2023-03-20T00:05:21.446Z,192.93
2023-03-20T00:07:49.369Z,170.63
2023-03-20T00:10:17.274Z,172.85
2023-03-20T00:12:44.274Z,171.82
2023-03-20T00:15:34.528Z,175.38
2023-03-20T00:18:01.355Z,163.63
2023-03-20T00:20:28.488Z,167.75
2023-03-20T00:22:56.151Z,163.00
2023-03-20T00:25:24.474Z,154.90
2023-03-20T00:27:51.732Z,160.52
2023-03-20T00:30:29.283Z,164.38
2023-03-20T00:32:56.697Z,157.77
2023-03-20T00:35:24.854Z,162.82
2023-03-20T00:37:52.284Z,162.25
2023-03-20T00:40:18.942Z,157.43
2023-03-20T00:42:47.533Z,160.50
2023-03-20T00:45:16.947Z,159.60
2023-03-20T00:47:43.565Z,173.48
2023-03-20T00:50:21.934Z,153.45
2023-03-20T00:52:48.748Z,159.43
2023-03-20T00:55:15.783Z,154.57
2023-03-20T00:57:44.195Z,146.05
2023-03-20T01:00:20.203Z,158.43
2023-03-20T01:02:46.703Z,160.93
2023-03-20T01:05:13.315Z,169.10
2023-03-20T01:07:40.379Z,184.43
2023-03-20T01:10:07.165Z,192.63
2023-03-20T01:12:33.663Z,177.70
2023-03-20T01:15:00.473Z,182.88
2023-03-20T01:17:27.615Z,146.38
2023-03-20T01:19:56.597Z,141.77
2023-03-20T01:22:23.087Z,164.43
2023-03-20T01:24:49.542Z,170.70
2023-03-20T01:27:17.399Z,145.23
2023-03-20T01:29:44.329Z,167.05
2023-03-20T01:32:19.975Z,148.77
2023-03-20T01:34:47.606Z,156.90
2023-03-20T01:37:16.950Z,185.63
2023-03-20T01:39:43.773Z,231.63
2023-03-20T01:42:14.270Z,217.10
2023-03-20T01:44:40.755Z,143.05
2023-03-20T01:47:15.052Z,125.00
2023-03-20T01:50:04.136Z,100.20
2023-03-20T01:52:30.648Z,140.38
2023-03-20T01:54:57.167Z,114.88
2023-03-20T01:57:25.010Z,96.68
2023-03-20T01:59:53.840Z,107.45
2023-03-20T02:02:25.208Z,91.45
2023-03-20T02:04:54.349Z,87.18
2023-03-20T02:07:21.653Z,79.95
2023-03-20T02:09:49.063Z,71.22
2023-03-20T02:12:16.691Z,81.82
2023-03-20T02:14:44.505Z,76.97
2023-03-20T02:17:13.219Z,72.10
2023-03-20T02:19:39.658Z,69.53
2023-03-20T02:22:20.856Z,61.70
2023-03-20T02:25:05.789Z,65.05
2023-03-20T02:27:51.430Z,67.95
2023-03-20T02:30:38.248Z,80.15
2023-03-20T02:33:13.837Z,93.85
2023-03-20T02:35:43.399Z,86.18
2023-03-20T02:38:09.975Z,205.32
2023-03-20T02:40:51.005Z,149.50
2023-03-20T02:45:46.871Z,291.25
2023-03-20T02:48:21.105Z,259.80
2023-03-20T02:50:53.278Z,349.33
2023-03-20T02:53:19.903Z,251.25
2023-03-20T02:55:49.661Z,363.42
2023-03-20T02:58:21.533Z,323.00
2023-03-20T03:00:52.043Z,437.27
2023-03-20T03:03:32.272Z,395.33
2023-03-20T03:06:06.793Z,362.13
2023-03-20T03:08:35.898Z,406.10
2023-03-20T03:11:05.448Z,287.27
2023-03-20T03:13:33.744Z,305.60
2023-03-20T03:16:03.418Z,380.65
2023-03-20T03:18:30.711Z,368.35
2023-03-20T03:20:59.140Z,411.42
2023-03-20T03:23:27.925Z,410.85
2023-03-20T03:26:00.206Z,408.92
2023-03-20T03:28:29.906Z,378.10
2023-03-20T03:33:25.528Z,380.75
2023-03-20T03:35:54.933Z,406.80
2023-03-20T03:38:26.133Z,515.45
2023-03-20T03:41:05.217Z,364.27
2023-03-20T03:43:34.569Z,453.95
2023-03-20T03:46:34.206Z,515.80
2023-03-20T03:49:02.099Z,413.05
2023-03-20T03:51:31.581Z,342.30
2023-03-20T03:54:00.731Z,253.77
2023-03-20T03:56:29.023Z,239.02
2023-03-20T03:58:57.841Z,343.08
2023-03-20T04:01:27.356Z,221.25
2023-03-20T04:03:56.271Z,205.95
2023-03-20T04:06:22.800Z,162.20
2023-03-20T04:08:49.314Z,198.50
2023-03-20T04:11:17.194Z,147.95
2023-03-20T04:13:44.451Z,145.00
2023-03-20T04:16:16.995Z,157.85
2023-03-20T04:18:43.464Z,130.68
2023-03-20T04:21:10.653Z,137.40
2023-03-20T04:23:37.444Z,158.32
2023-03-20T04:26:07.122Z,147.95
2023-03-20T04:28:33.696Z,142.57
2023-03-20T04:31:01.665Z,143.68
2023-03-20T04:33:28.718Z,176.13
2023-03-20T04:35:55.690Z,203.13
2023-03-20T04:38:23.279Z,245.20
2023-03-20T04:40:49.736Z,228.90
2023-03-20T04:43:16.341Z,271.92
2023-03-20T04:45:42.784Z,213.63
2023-03-20T04:48:09.372Z,192.20
2023-03-20T04:50:35.947Z,200.82
2023-03-20T04:53:02.404Z,180.88
2023-03-20T04:55:28.854Z,227.70
2023-03-20T04:57:55.494Z,274.35
2023-03-20T05:00:22.320Z,163.60
2023-03-20T05:02:48.818Z,260.60
2023-03-20T05:05:15.484Z,210.45
2023-03-20T05:07:41.974Z,314.08
2023-03-20T05:10:08.725Z,158.93
2023-03-20T05:12:35.469Z,255.75
2023-03-20T05:15:01.949Z,185.13
2023-03-20T05:17:28.456Z,261.08
2023-03-20T05:19:54.962Z,252.80
2023-03-20T05:22:21.381Z,321.50
2023-03-20T05:24:47.803Z,173.57
2023-03-20T05:27:14.516Z,189.90
2023-03-20T05:29:41.087Z,183.93
2023-03-20T05:32:07.694Z,133.00
2023-03-20T05:34:34.195Z,147.68
2023-03-20T05:37:00.653Z,234.50
2023-03-20T05:39:27.065Z,135.57
2023-03-20T05:41:53.542Z,192.40
2023-03-20T05:44:19.988Z,206.25
2023-03-20T05:46:46.532Z,157.18
2023-03-20T05:49:13.153Z,180.40
2023-03-20T05:51:39.607Z,183.10
2023-03-20T05:54:06.038Z,204.88
2023-03-20T05:56:32.605Z,128.55
2023-03-20T05:58:59.245Z,175.05
2023-03-20T06:01:25.712Z,164.30
2023-03-20T06:03:52.170Z,161.82
2023-03-20T06:06:18.651Z,144.68
2023-03-20T06:08:45.324Z,121.20
2023-03-20T06:11:12.058Z,89.20
2023-03-20T06:13:38.619Z,159.50
2023-03-20T06:16:05.269Z,132.23
2023-03-20T06:18:31.749Z,95.18
2023-03-20T06:20:58.231Z,121.80
2023-03-20T06:23:24.888Z,194.32
2023-03-20T06:25:53.150Z,121.03
2023-03-20T06:28:19.552Z,75.97
2023-03-20T06:30:45.959Z,82.82
2023-03-20T06:33:12.543Z,63.92
2023-03-20T06:35:40.252Z,62.80
2023-03-20T06:38:06.719Z,71.60
2023-03-20T06:40:33.246Z,55.85
2023-03-20T06:42:59.681Z,50.55
2023-03-20T06:45:26.164Z,56.80
2023-03-20T06:47:52.662Z,47.97
2023-03-20T06:50:19.173Z,36.40
2023-03-20T06:52:45.902Z,46.40
2023-03-20T06:55:12.953Z,29.58
2023-03-20T06:57:39.572Z,28.67
2023-03-20T07:00:06.629Z,23.85
2023-03-20T07:02:33.538Z,24.45
2023-03-20T07:04:59.990Z,27.02
2023-03-20T07:07:26.549Z,20.83
2023-03-20T07:09:53.166Z,19.40
2023-03-20T07:12:26.484Z,22.95
2023-03-20T07:14:53.014Z,20.75
2023-03-20T07:17:19.552Z,18.02
2023-03-20T07:19:46.140Z,17.75
2023-03-20T07:22:18.429Z,20.00
2023-03-20T07:24:47.235Z,18.42
2023-03-20T07:27:13.959Z,17.90
2023-03-20T07:29:40.500Z,16.63
2023-03-20T07:32:09.245Z,12.40
2023-03-20T07:34:36.146Z,11.73
2023-03-20T07:37:02.751Z,14.77
2023-03-20T07:39:29.213Z,18.33
2023-03-20T07:41:55.650Z,19.00
2023-03-20T07:44:22.476Z,18.83
2023-03-20T07:46:48.987Z,16.90
2023-03-20T07:49:20.490Z,21.17
2023-03-20T07:51:48.428Z,21.33
2023-03-20T07:54:15.390Z,19.42
2023-03-20T07:56:42.057Z,17.05
2023-03-20T07:59:08.855Z,13.23
2023-03-20T08:01:35.506Z,14.77
2023-03-20T08:04:02.168Z,18.10
2023-03-20T08:06:31.525Z,18.20
2023-03-20T08:08:58.101Z,15.05
2023-03-20T08:11:24.602Z,14.93
2023-03-20T08:13:51.171Z,14.63
2023-03-20T08:16:17.776Z,15.88
2023-03-20T08:18:44.265Z,12.70
2023-03-20T08:21:11.403Z,16.00
2023-03-20T08:23:37.940Z,14.05
2023-03-20T08:26:04.421Z,12.55
2023-03-20T08:28:46.479Z,19.25
2023-03-20T08:31:14.150Z,10.75
2023-03-20T08:33:41.090Z,8.07
2023-03-20T08:36:07.954Z,10.02
2023-03-20T08:38:34.470Z,4.60
2023-03-20T08:41:01.090Z,5.60
2023-03-20T08:43:27.602Z,5.40
2023-03-20T08:45:54.304Z,4.90
2023-03-20T08:48:21.126Z,4.22
2023-03-20T08:50:47.750Z,6.35
2023-03-20T08:53:14.176Z,11.80
2023-03-20T08:55:40.550Z,7.57
2023-03-20T08:58:07.180Z,7.60
2023-03-20T09:00:33.729Z,5.25
2023-03-20T09:03:00.227Z,6.18
2023-03-20T09:05:26.685Z,4.07
2023-03-20T09:07:53.130Z,4.60
2023-03-20T09:10:19.756Z,4.68
2023-03-20T09:12:46.168Z,2.85
2023-03-20T09:15:15.465Z,2.08
2023-03-20T09:17:41.885Z,2.40
2023-03-20T09:20:08.751Z,3.83
2023-03-20T09:22:35.524Z,4.22
2023-03-20T09:25:01.975Z,2.25
2023-03-20T09:27:28.423Z,1.58
2023-03-20T09:29:54.819Z,1.60
2023-03-20T09:32:21.724Z,2.22
2023-03-20T09:34:48.150Z,3.00
2023-03-20T09:37:14.543Z,4.72
2023-03-20T09:39:41.067Z,1.95
2023-03-20T09:42:11.593Z,1.58
2023-03-20T09:44:46.062Z,2.22
2023-03-20T09:47:25.530Z,3.42
2023-03-20T09:49:55.211Z,3.20
2023-03-20T09:52:29.318Z,4.63
2023-03-20T09:55:04.315Z,4.50
2023-03-20T09:57:41.138Z,5.00
2023-03-20T10:00:12.405Z,7.20
2023-03-20T10:02:44.984Z,2.65
2023-03-20T10:05:22.529Z,4.97
2023-03-20T10:07:49.311Z,3.55
2023-03-20T10:10:16.310Z,3.35
2023-03-20T10:12:48.664Z,2.88
2023-03-20T10:15:15.065Z,8.50
2023-03-20T10:17:44.342Z,6.63
2023-03-20T10:20:13.495Z,4.57
2023-03-20T10:22:42.990Z,4.68
2023-03-20T10:25:25.318Z,11.38
2023-03-20T10:27:59.067Z,8.05
2023-03-20T10:30:45.813Z,9.48
2023-03-20T10:33:26.865Z,7.70
2023-03-20T10:36:12.212Z,4.72
2023-03-20T10:38:39.133Z,12.18
2023-03-20T10:41:10.556Z,7.35
2023-03-20T10:43:41.628Z,7.45
2023-03-20T10:46:22.054Z,4.55
2023-03-20T10:48:57.620Z,7.20
2023-03-20T10:51:31.465Z,7.03
2023-03-20T10:54:03.559Z,12.98
2023-03-20T10:56:37.304Z,8.73
2023-03-20T10:59:06.929Z,5.57
2023-03-20T11:01:35.633Z,6.35
2023-03-20T11:04:04.704Z,8.98
2023-03-20T11:06:33.552Z,8.35
2023-03-20T11:09:10.545Z,5.50
2023-03-20T11:11:39.828Z,6.70
2023-03-20T11:14:21.045Z,7.25
2023-03-20T11:16:49.737Z,7.57
2023-03-20T11:19:17.482Z,10.02
2023-03-20T11:21:54.962Z,13.15
2023-03-20T11:24:24.214Z,9.00
2023-03-20T11:26:51.064Z,12.07
2023-03-20T11:29:29.805Z,13.70
2023-03-20T11:32:03.728Z,9.13
2023-03-20T11:34:31.786Z,13.32
2023-03-20T11:37:10.155Z,6.05
2023-03-20T11:39:38.174Z,13.55
2023-03-20T11:42:20.361Z,14.65
2023-03-20T11:44:56.376Z,11.55
2023-03-20T11:47:24.624Z,10.25
2023-03-20T11:49:55.321Z,20.40
2023-03-20T11:52:22.860Z,9.27
2023-03-20T11:54:54.306Z,11.93
2023-03-20T11:57:36.930Z,14.55
2023-03-20T12:00:17.059Z,11.15
2023-03-20T12:02:46.815Z,7.80
2023-03-20T12:05:34.151Z,15.10
2023-03-20T12:08:16.256Z,11.65
2023-03-20T12:10:44.407Z,9.73
2023-03-20T12:13:10.807Z,6.22
2023-03-20T12:15:41.572Z,12.70
2023-03-20T12:18:26.515Z,14.25
2023-03-20T12:21:05.597Z,16.42
2023-03-20T12:23:51.024Z,14.07
2023-03-20T12:26:20.521Z,16.05
2023-03-20T12:28:46.918Z,6.20
2023-03-20T12:31:32.174Z,8.70
2023-03-20T12:34:05.901Z,15.32
2023-03-20T12:36:33.892Z,17.38
2023-03-20T12:39:03.064Z,18.27
2023-03-20T12:41:34.556Z,10.32
2023-03-20T12:44:23.943Z,9.15
2023-03-20T12:46:59.520Z,15.02
2023-03-20T12:49:31.017Z,16.17
2023-03-20T12:52:03.287Z,11.95
2023-03-20T12:54:53.043Z,13.57
2023-03-20T12:57:27.198Z,15.07
2023-03-20T13:00:05.789Z,17.67
2023-03-20T13:02:33.556Z,9.32
2023-03-20T13:05:18.853Z,11.45
2023-03-20T13:07:45.598Z,11.25
2023-03-20T13:10:12.170Z,20.88
2023-03-20T13:13:02.959Z,10.85
2023-03-20T13:15:29.328Z,8.63
2023-03-20T13:18:02.424Z,13.25
2023-03-20T13:20:33.416Z,13.60
2023-03-20T13:23:17.380Z,16.75
2023-03-20T13:26:02.493Z,14.05
2023-03-20T13:28:38.111Z,10.88
2023-03-20T13:31:21.334Z,14.10
2023-03-20T13:33:51.264Z,9.98
2023-03-20T13:36:36.035Z,13.60
2023-03-20T13:39:25.928Z,9.88
2023-03-20T13:41:53.397Z,16.35
2023-03-20T13:44:21.212Z,12.05
2023-03-20T13:46:50.542Z,17.50
2023-03-20T13:49:23.456Z,13.88
2023-03-20T13:52:08.756Z,15.25
2023-03-20T13:54:53.964Z,14.98
2023-03-20T13:57:29.428Z,9.38
2023-03-20T14:00:01.608Z,17.70
2023-03-20T14:02:38.313Z,10.40
2023-03-20T14:05:12.626Z,17.95
2023-03-20T14:07:42.423Z,10.15
2023-03-20T14:10:21.120Z,9.35
2023-03-20T14:12:50.533Z,16.02
2023-03-20T14:15:19.105Z,12.18
2023-03-20T14:17:47.023Z,8.40
2023-03-20T14:20:35.055Z,15.93
2023-03-20T14:23:01.915Z,18.67
2023-03-20T14:25:32.960Z,9.68
2023-03-20T14:28:00.844Z,10.93
2023-03-20T14:30:27.249Z,12.30
2023-03-20T14:32:59.611Z,18.27
2023-03-20T14:35:28.074Z,15.90
2023-03-20T14:38:13.291Z,7.40
2023-03-20T14:41:01.995Z,8.63
2023-03-20T14:43:34.167Z,12.40
2023-03-20T14:46:03.661Z,6.93
2023-03-20T14:48:35.610Z,14.13
2023-03-20T14:51:02.219Z,8.07
2023-03-20T14:53:29.053Z,13.85
2023-03-20T14:55:55.452Z,16.25
2023-03-20T14:58:37.263Z,6.65
2023-03-20T15:01:05.236Z,20.33
2023-03-20T15:03:32.109Z,10.98
2023-03-20T15:06:01.291Z,9.75
2023-03-20T15:08:47.694Z,7.30
2023-03-20T15:11:14.646Z,12.88
2023-03-20T15:13:41.386Z,8.65
2023-03-20T15:16:09.535Z,12.07
2023-03-20T15:18:37.614Z,10.77
2023-03-20T15:21:04.100Z,13.93
2023-03-20T15:23:30.557Z,8.35
2023-03-20T15:26:00.376Z,13.15
2023-03-20T15:28:27.624Z,16.38
2023-03-20T15:30:56.733Z,12.40
2023-03-20T15:33:31.491Z,17.85
2023-03-20T15:35:58.336Z,9.10
2023-03-20T15:38:29.233Z,11.10
2023-03-20T15:43:25.940Z,11.20
2023-03-20T15:46:02.906Z,11.15
2023-03-20T15:48:29.600Z,13.25
2023-03-20T15:50:58.557Z,10.57
2023-03-20T15:53:35.859Z,7.55
2023-03-20T15:56:19.796Z,13.38
2023-03-20T15:58:48.593Z,9.88
2023-03-20T16:01:17.380Z,15.55
2023-03-20T16:03:44.425Z,10.45
2023-03-20T16:06:12.235Z,9.77
2023-03-20T16:08:39.208Z,10.27
2023-03-20T16:11:07.847Z,15.73
2023-03-20T16:13:39.079Z,15.10
2023-03-20T16:16:07.836Z,10.95
2023-03-20T16:18:36.855Z,6.25
2023-03-20T16:21:08.292Z,11.35
2023-03-20T16:23:39.486Z,4.32
2023-03-20T16:26:08.192Z,17.42
2023-03-20T16:28:38.293Z,8.70
2023-03-20T16:31:17.150Z,10.90
2023-03-20T16:33:44.196Z,8.63
2023-03-20T16:36:21.858Z,12.73
2023-03-20T16:38:55.969Z,15.95
2023-03-20T16:41:33.686Z,17.73
2023-03-20T16:44:04.826Z,10.95
2023-03-20T16:46:31.304Z,14.90
2023-03-20T16:48:58.778Z,15.90
2023-03-20T16:51:30.362Z,11.63
2023-03-20T16:54:03.772Z,12.38
2023-03-20T16:56:34.065Z,8.00
2023-03-20T16:59:07.205Z,13.50
2023-03-20T17:01:34.440Z,13.80
2023-03-20T17:04:33.438Z,14.23
2023-03-20T17:07:01.596Z,6.45
2023-03-20T17:09:30.407Z,5.00
2023-03-20T17:11:58.324Z,9.52
2023-03-20T17:14:24.785Z,7.82
2023-03-20T17:16:52.464Z,7.63
2023-03-20T17:19:19.319Z,10.65
2023-03-20T17:21:46.334Z,6.88
2023-03-20T17:24:13.620Z,14.02
2023-03-20T17:26:41.467Z,3.97
2023-03-20T17:29:08.105Z,12.57
2023-03-20T17:31:34.576Z,12.50
2023-03-20T17:34:01.037Z,8.27
2023-03-20T17:36:29.111Z,9.82
2023-03-20T17:38:56.425Z,11.63
2023-03-20T17:41:23.580Z,8.98
2023-03-20T17:43:51.474Z,6.93
2023-03-20T17:46:28.886Z,11.13
2023-03-20T17:49:06.012Z,12.10
2023-03-20T17:51:33.398Z,14.68
2023-03-20T17:53:59.916Z,10.45
2023-03-20T17:56:32.529Z,9.18
2023-03-20T17:59:02.756Z,14.35
2023-03-20T18:01:32.254Z,11.32
2023-03-20T18:03:59.266Z,16.57
2023-03-20T18:06:27.147Z,11.13
2023-03-20T18:08:54.273Z,16.88
2023-03-20T18:11:20.855Z,7.75
2023-03-20T18:13:47.285Z,10.77
2023-03-20T18:16:18.449Z,4.65
2023-03-20T18:18:45.059Z,6.63
2023-03-20T18:21:12.040Z,9.48
2023-03-20T18:23:38.724Z,11.43
2023-03-20T18:26:05.330Z,6.15
2023-03-20T18:28:31.747Z,7.00
2023-03-20T18:30:58.427Z,7.78
2023-03-20T18:33:27.637Z,7.20
2023-03-20T18:35:54.378Z,5.10
2023-03-20T18:38:21.017Z,8.13
2023-03-20T18:40:47.592Z,6.90
2023-03-20T18:43:13.971Z,7.35
2023-03-20T18:45:40.412Z,10.05
2023-03-20T18:48:07.240Z,9.55
2023-03-20T18:50:38.240Z,6.45
2023-03-20T18:53:05.949Z,11.35
2023-03-20T18:55:32.617Z,10.68
2023-03-20T18:57:59.477Z,7.90
2023-03-20T19:00:38.046Z,7.38
2023-03-20T19:03:04.782Z,13.75
2023-03-20T19:05:31.395Z,10.70
2023-03-20T19:07:59.779Z,7.78
2023-03-20T19:10:35.901Z,5.28
2023-03-20T19:13:03.415Z,5.55
2023-03-20T19:15:35.728Z,11.45
2023-03-20T19:18:03.261Z,6.65
2023-03-20T19:20:36.089Z,17.33
2023-03-20T19:23:10.515Z,13.00
2023-03-20T19:25:37.683Z,7.35
2023-03-20T19:28:04.804Z,6.30
2023-03-20T19:30:31.412Z,8.15
2023-03-20T19:32:58.286Z,10.10
2023-03-20T19:35:47.278Z,11.75
2023-03-20T19:38:15.596Z,9.38
2023-03-20T19:40:43.493Z,5.90
2023-03-20T19:43:10.567Z,15.48
2023-03-20T19:45:38.516Z,10.65
2023-03-20T19:48:13.076Z,10.88
2023-03-20T19:50:41.646Z,13.57
2023-03-20T19:53:10.275Z,9.20
2023-03-20T19:55:40.758Z,16.45
2023-03-20T19:58:07.625Z,13.65
2023-03-20T20:03:23.034Z,17.27
2023-03-20T20:05:49.860Z,11.85
2023-03-20T20:08:28.566Z,14.85
2023-03-20T20:11:03.762Z,22.38
2023-03-20T20:13:32.727Z,16.15
2023-03-20T20:15:59.178Z,19.65
2023-03-20T20:18:26.742Z,16.23
2023-03-20T20:21:42.648Z,17.63
2023-03-20T20:23:42.051Z,13.98
2023-03-20T20:26:09.600Z,12.23
2023-03-20T20:28:36.015Z,14.00
2023-03-20T20:31:02.764Z,15.15
2023-03-20T20:33:29.366Z,18.67
2023-03-20T20:36:36.749Z,18.70
2023-03-20T20:38:51.208Z,17.58
2023-03-20T20:41:18.074Z,18.65
2023-03-20T20:46:31.011Z,18.95
2023-03-20T20:48:57.487Z,13.15
2023-03-20T20:51:24.006Z,19.52
2023-03-20T20:53:50.565Z,15.35
2023-03-20T20:56:16.997Z,15.32
2023-03-20T20:58:43.585Z,26.48
2023-03-20T21:01:10.009Z,20.60
2023-03-20T21:03:36.713Z,23.38
2023-03-20T21:06:06.521Z,15.13
2023-03-20T21:08:34.854Z,18.75
2023-03-20T21:11:01.330Z,16.65
2023-03-20T21:13:27.978Z,19.77
2023-03-20T21:16:00.468Z,17.10
2023-03-20T21:18:27.072Z,16.40
2023-03-20T21:20:53.534Z,19.17
2023-03-20T21:23:20.038Z,15.88
2023-03-20T21:25:48.066Z,15.95
2023-03-20T21:28:15.262Z,18.45
2023-03-20T21:30:51.051Z,17.55
2023-03-20T21:33:28.639Z,19.27
2023-03-20T21:35:58.088Z,19.15
2023-03-20T21:41:11.449Z,18.38
2023-03-20T21:43:37.950Z,20.10
2023-03-20T21:52:37.431Z,20.30
2023-03-20T22:02:49.077Z,14.15
2023-03-20T22:06:14.072Z,20.15
2023-03-20T22:09:00.326Z,24.75
2023-03-20T22:22:37.887Z,16.38
2023-03-20T22:25:25.860Z,17.70
2023-03-20T22:28:08.509Z,13.25
2023-03-20T22:34:09.001Z,13.10
2023-03-20T22:39:34.081Z,14.50
2023-03-20T22:47:00.406Z,9.15
2023-03-20T22:49:27.347Z,10.65
2023-03-20T22:52:11.717Z,7.82
2023-03-20T22:54:44.463Z,7.70
2023-03-20T22:57:10.937Z,7.90
2023-03-20T22:59:37.604Z,5.78
2023-03-20T23:02:04.133Z,7.05
2023-03-20T23:04:30.701Z,10.60
2023-03-20T23:06:57.354Z,13.13
2023-03-20T23:09:23.797Z,6.60
2023-03-20T23:11:54.456Z,8.75
2023-03-20T23:14:22.339Z,9.10
2023-03-20T23:16:49.360Z,6.57
2023-03-20T23:19:16.467Z,6.70
2023-03-20T23:21:43.123Z,6.88
2023-03-20T23:24:09.905Z,9.73
2023-03-20T23:26:36.531Z,10.68
2023-03-20T23:29:05.793Z,7.63
2023-03-20T23:31:32.256Z,7.65
2023-03-20T23:33:58.710Z,5.80
2023-03-20T23:36:35.859Z,9.45
2023-03-20T23:39:07.101Z,4.93
2023-03-20T23:42:03.959Z,4.88
2023-03-20T23:44:21.084Z,5.45
2023-03-20T23:46:48.378Z,5.53
2023-03-20T23:49:15.029Z,5.55
2023-03-20T23:51:41.438Z,3.47
2023-03-20T23:54:07.876Z,3.50
2023-03-20T23:56:34.381Z,4.80
2023-03-20T23:59:08.338Z,3.58
